Grahamville, Kentucky
Current Conditions -  °F | °C
As of 4:53 PM on Tuesday 27 Jan 2015 (Local Time) from KPAH Reporting Station
Broken Clouds Broken Clouds  
Wind Chill: 35°   Ceiling: 3900
Heat Index: 41°   Visibility: 10mi
Dew Point: 28°   Wind: 10mph
Humidity: 60%   Direction: 350°N
Pressure: 30.18"   Gusts: NA
Location:  37.0919°N, 88.7716°W
Report Text: KPAH 272253Z 35009KT 10SM BKN039 05/M02 A3018 RMK AO2 SLP222 T00501022
Loading
Personal Weather Stations






























Interactive Weather Map New forecast layout! Learn more

10-Day Weather Forecast

Advertisements
Track Severe Weather on mobile